Terminal Aerodrome Forecast
Issued by NWS Duluth, MN

Current Version | Previous Version | Text Only | Print | Product List | Glossary On
Versions: 1 2 3 4 5 6 7 8 9 10 11 12 13 14 15 16 17 18 19 20 21 22 23 24 25
000
FTUS43 KDLH 220900 AAA
TAFDLH
TAF AMD
KDLH 220902Z 2209/2306 22008KT P6SM SCT006 OVC040
     FM221400 31021G28KT P6SM OVC015
     FM221800 33015G25KT P6SM BKN040
     FM230000 31008KT P6SM SCT050=

USA.gov is the U.S. government's official web portal to all federal, state and local government web resources and services.